Mituhiro5 — JD2850 — position and weather

sailwx.info

Track history (hours):
 
Tides and Currents Weather Stations Pressure Air Temp Water Temp Dewpoint Dewpoint Depression Visibility Wind Speed Wind Dir Waves Ship Positions

Mituhiro5

Last reported at 2017-Nov-16 11:07 UTC. Time now 2017-Nov-24 16:35 UTC.
Position N 34°58' E 139°43'.
Warning: this ship's position is 8 days out of date.

Length 68 m; draft 3.4 m.

Type: Cargo ship. MMSI: 431000818.

Date/timePositionNaut miles runAvg speedWind from/ knotsBaromVisibWave heightAir tempDewpointWater temp
2017-Nov-16 11:07N 34°58' E 139°43'311.7
2017-Nov-16 10:54N 35°01' E 139°43'511.9
2017-Nov-16 10:30N 35°05' E 139°44'612.0
2017-Nov-16 10:00N 35°11' E 139°46'1311.9
2017-Nov-16 08:56N 35°23' E 139°42'  
2017-Nov-14 02:24N 35°25' E 139°47'1310.6
2017-Nov-14 01:13N 35°12' E 139°47'310.8
2017-Nov-14 00:54N 35°09' E 139°45'410.2
2017-Nov-14 00:29N 35°05' E 139°43'  
2017-Nov-09 09:52N 34°35' E 135°07'512.7
2017-Nov-09 09:27N 34°34' E 135°14'9 0.2
2017-Nov-07 16:31N 34°36' E 135°25'111.1
2017-Nov-07 16:26N 34°36' E 135°24'610.6
2017-Nov-07 15:52N 34°33' E 135°18'  
Track history (hours):
 
Tides and Currents Weather Stations Pressure Air Temp Water Temp Dewpoint Dewpoint Depression Visibility Wind Speed Wind Dir Waves Ship Positions

Mituhiro5

Last reported at 2017-Nov-16 11:07 UTC. Time now 2017-Nov-24 16:35 UTC.
Position N 34°58' E 139°43'.
Warning: this ship's position is 8 days out of date.

Length 68 m; draft 3.4 m.

Type: Cargo ship. MMSI: 431000818.

Date/timePositionNaut miles runAvg speedWind from/ knotsBaromVisibWave heightAir tempDewpointWater temp
2017-Nov-16 11:07N 34°58' E 139°43'311.7
2017-Nov-16 10:54N 35°01' E 139°43'511.9
2017-Nov-16 10:30N 35°05' E 139°44'612.0
2017-Nov-16 10:00N 35°11' E 139°46'1311.9
2017-Nov-16 08:56N 35°23' E 139°42'  
2017-Nov-14 02:24N 35°25' E 139°47'1310.6
2017-Nov-14 01:13N 35°12' E 139°47'310.8
2017-Nov-14 00:54N 35°09' E 139°45'410.2
2017-Nov-14 00:29N 35°05' E 139°43'  
2017-Nov-09 09:52N 34°35' E 135°07'512.7
2017-Nov-09 09:27N 34°34' E 135°14'9 0.2
2017-Nov-07 16:31N 34°36' E 135°25'111.1
2017-Nov-07 16:26N 34°36' E 135°24'610.6
2017-Nov-07 15:52N 34°33' E 135°18'  

Dump ship's entire track history